Terminal Aerodrome Forecast
Issued by NWS Twin Cities, MN

Home | Current Version | Previous Version | Graphics & Text | Print | Product List | Glossary On
Versions: 1 2 3 4 5 6 7 8 9 10 11 12 13 14 15
000
FTUS43 KMPX 021728
TAFEAU
TAF
KEAU 021728Z 0218/0318 VRB04KT P6SM FEW250
     FM030000 16007KT P6SM OVC100
     FM031000 14008KT 1 1/2SM -SN BR OVC015=

USA.gov is the U.S. government's official web portal to all federal, state and local government web resources and services.